Аэропорт: Кызылорда. Кызылорда

ICAO: UAOO

METAR:
2018/09/19 07:30
UAOO 190730Z 33007MPS CAVOK 27/06 Q1011 R23/CLRD70 NOSIG RMK QFE746/0995
METAR:
2018/04/18 00:06
TAF TAF UAOO 172300Z 1700/1809 27006MPS 9999 SCT033 BKN100